sensor_id;sensor_type;location;lat;lon;timestamp;P1;durP1;ratioP1;P2;durP2;ratioP2
9924;SDS011;5001;51.674;7.868;2023-04-24T00:01:49;2.27;;;1.60;;
9924;SDS011;5001;51.674;7.868;2023-04-24T00:04:16;5.00;;;3.90;;
9924;SDS011;5001;51.674;7.868;2023-04-24T00:06:43;2.23;;;1.40;;
9924;SDS011;5001;51.674;7.868;2023-04-24T00:09:10;4.33;;;1.73;;
9924;SDS011;5001;51.674;7.868;2023-04-24T00:11:37;3.97;;;2.67;;
9924;SDS011;5001;51.674;7.868;2023-04-24T00:14:04;5.00;;;2.50;;
9924;SDS011;5001;51.674;7.868;2023-04-24T00:16:31;2.37;;;2.10;;
9924;SDS011;5001;51.674;7.868;2023-04-24T00:18:58;3.30;;;1.73;;
9924;SDS011;5001;51.674;7.868;2023-04-24T00:21:27;1.90;;;1.70;;
9924;SDS011;5001;51.674;7.868;2023-04-24T00:23:54;1.90;;;1.30;;
9924;SDS011;5001;51.674;7.868;2023-04-24T00:26:21;1.33;;;1.00;;
9924;SDS011;5001;51.674;7.868;2023-04-24T00:28:49;1.87;;;1.30;;
9924;SDS011;5001;51.674;7.868;2023-04-24T00:31:16;3.50;;;1.37;;
9924;SDS011;5001;51.674;7.868;2023-04-24T00:33:43;1.63;;;1.13;;
9924;SDS011;5001;51.674;7.868;2023-04-24T00:36:10;2.50;;;1.10;;
9924;SDS011;5001;51.674;7.868;2023-04-24T00:38:37;2.37;;;1.13;;
9924;SDS011;5001;51.674;7.868;2023-04-24T00:41:04;2.00;;;1.00;;
9924;SDS011;5001;51.674;7.868;2023-04-24T00:43:31;3.50;;;1.10;;
9924;SDS011;5001;51.674;7.868;2023-04-24T00:45:58;1.47;;;1.10;;
9924;SDS011;5001;51.674;7.868;2023-04-24T00:48:27;1.83;;;1.10;;
9924;SDS011;5001;51.674;7.868;2023-04-24T00:50:54;0.80;;;0.80;;
9924;SDS011;5001;51.674;7.868;2023-04-24T00:53:21;2.03;;;1.10;;
9924;SDS011;5001;51.674;7.868;2023-04-24T00:55:48;1.33;;;1.10;;
9924;SDS011;5001;51.674;7.868;2023-04-24T00:58:16;3.23;;;2.40;;
9924;SDS011;5001;51.674;7.868;2023-04-24T01:00:43;1.97;;;1.43;;
9924;SDS011;5001;51.674;7.868;2023-04-24T01:03:11;0.93;;;0.83;;
9924;SDS011;5001;51.674;7.868;2023-04-24T01:05:39;1.40;;;1.30;;
9924;SDS011;5001;51.674;7.868;2023-04-24T01:08:06;4.63;;;2.20;;
9924;SDS011;5001;51.674;7.868;2023-04-24T01:10:34;3.20;;;1.70;;
9924;SDS011;5001;51.674;7.868;2023-04-24T01:13:04;2.63;;;2.20;;
9924;SDS011;5001;51.674;7.868;2023-04-24T01:15:31;4.17;;;2.90;;
9924;SDS011;5001;51.674;7.868;2023-04-24T01:17:58;3.43;;;2.40;;
9924;SDS011;5001;51.674;7.868;2023-04-24T01:20:25;3.50;;;2.60;;
9924;SDS011;5001;51.674;7.868;2023-04-24T01:22:54;2.00;;;1.40;;
9924;SDS011;5001;51.674;7.868;2023-04-24T01:25:23;1.93;;;1.20;;
9924;SDS011;5001;51.674;7.868;2023-04-24T01:27:52;1.90;;;1.80;;
9924;SDS011;5001;51.674;7.868;2023-04-24T01:30:19;2.20;;;1.77;;
9924;SDS011;5001;51.674;7.868;2023-04-24T01:32:46;2.27;;;1.60;;
9924;SDS011;5001;51.674;7.868;2023-04-24T01:35:13;2.27;;;1.50;;
9924;SDS011;5001;51.674;7.868;2023-04-24T01:37:41;1.50;;;1.30;;
9924;SDS011;5001;51.674;7.868;2023-04-24T01:40:08;1.73;;;1.63;;
9924;SDS011;5001;51.674;7.868;2023-04-24T01:42:35;1.93;;;1.70;;
9924;SDS011;5001;51.674;7.868;2023-04-24T01:45:03;3.33;;;1.70;;
9924;SDS011;5001;51.674;7.868;2023-04-24T01:47:31;2.87;;;1.90;;
9924;SDS011;5001;51.674;7.868;2023-04-24T01:49:59;1.90;;;1.67;;
9924;SDS011;5001;51.674;7.868;2023-04-24T01:52:26;2.10;;;1.60;;
9924;SDS011;5001;51.674;7.868;2023-04-24T01:54:53;3.03;;;1.70;;
9924;SDS011;5001;51.674;7.868;2023-04-24T01:57:22;5.40;;;1.80;;
9924;SDS011;5001;51.674;7.868;2023-04-24T01:59:49;2.47;;;1.80;;
9924;SDS011;5001;51.674;7.868;2023-04-24T02:02:17;2.20;;;1.70;;
9924;SDS011;5001;51.674;7.868;2023-04-24T02:04:44;2.57;;;1.77;;
9924;SDS011;5001;51.674;7.868;2023-04-24T02:07:11;2.47;;;1.97;;
9924;SDS011;5001;51.674;7.868;2023-04-24T02:09:38;3.60;;;1.80;;
9924;SDS011;5001;51.674;7.868;2023-04-24T02:12:05;3.27;;;1.80;;
9924;SDS011;5001;51.674;7.868;2023-04-24T02:14:32;2.50;;;1.60;;
9924;SDS011;5001;51.674;7.868;2023-04-24T02:16:59;1.73;;;1.63;;
9924;SDS011;5001;51.674;7.868;2023-04-24T02:19:27;2.97;;;1.67;;
9924;SDS011;5001;51.674;7.868;2023-04-24T02:21:54;2.27;;;1.63;;
9924;SDS011;5001;51.674;7.868;2023-04-24T02:24:21;4.13;;;1.90;;
9924;SDS011;5001;51.674;7.868;2023-04-24T02:26:48;4.67;;;1.77;;
9924;SDS011;5001;51.674;7.868;2023-04-24T02:29:15;1.83;;;1.73;;
9924;SDS011;5001;51.674;7.868;2023-04-24T02:31:42;2.20;;;1.80;;
9924;SDS011;5001;51.674;7.868;2023-04-24T02:34:09;2.60;;;2.10;;
9924;SDS011;5001;51.674;7.868;2023-04-24T02:36:36;1.93;;;1.70;;
9924;SDS011;5001;51.674;7.868;2023-04-24T02:39:03;2.40;;;1.83;;
9924;SDS011;5001;51.674;7.868;2023-04-24T02:41:31;2.27;;;1.50;;
9924;SDS011;5001;51.674;7.868;2023-04-24T02:43:59;3.07;;;1.67;;
9924;SDS011;5001;51.674;7.868;2023-04-24T02:46:26;1.80;;;1.57;;
9924;SDS011;5001;51.674;7.868;2023-04-24T02:48:53;1.90;;;1.60;;
9924;SDS011;5001;51.674;7.868;2023-04-24T02:51:20;2.03;;;1.80;;
9924;SDS011;5001;51.674;7.868;2023-04-24T02:53:47;2.93;;;2.03;;
9924;SDS011;5001;51.674;7.868;2023-04-24T02:56:14;3.40;;;1.70;;
9924;SDS011;5001;51.674;7.868;2023-04-24T02:58:41;3.33;;;1.83;;
9924;SDS011;5001;51.674;7.868;2023-04-24T03:01:09;2.77;;;2.07;;
9924;SDS011;5001;51.674;7.868;2023-04-24T03:03:37;3.03;;;2.40;;
9924;SDS011;5001;51.674;7.868;2023-04-24T03:06:05;6.83;;;2.03;;
9924;SDS011;5001;51.674;7.868;2023-04-24T03:08:34;2.43;;;2.10;;
9924;SDS011;5001;51.674;7.868;2023-04-24T03:11:02;3.57;;;2.53;;
9924;SDS011;5001;51.674;7.868;2023-04-24T03:13:29;2.90;;;1.97;;
9924;SDS011;5001;51.674;7.868;2023-04-24T03:15:56;2.00;;;1.80;;
9924;SDS011;5001;51.674;7.868;2023-04-24T03:18:23;2.37;;;1.67;;
9924;SDS011;5001;51.674;7.868;2023-04-24T03:20:51;2.50;;;2.10;;
9924;SDS011;5001;51.674;7.868;2023-04-24T03:23:18;3.23;;;2.00;;
9924;SDS011;5001;51.674;7.868;2023-04-24T03:25:46;2.87;;;1.90;;
9924;SDS011;5001;51.674;7.868;2023-04-24T03:28:15;3.67;;;2.20;;
9924;SDS011;5001;51.674;7.868;2023-04-24T03:30:47;2.70;;;2.50;;
9924;SDS011;5001;51.674;7.868;2023-04-24T03:33:16;3.60;;;3.00;;
9924;SDS011;5001;51.674;7.868;2023-04-24T03:35:53;3.70;;;2.50;;
9924;SDS011;5001;51.674;7.868;2023-04-24T03:38:20;3.57;;;2.77;;
9924;SDS011;5001;51.674;7.868;2023-04-24T03:40:57;4.90;;;3.00;;
9924;SDS011;5001;51.674;7.868;2023-04-24T03:43:34;3.30;;;2.63;;
9924;SDS011;5001;51.674;7.868;2023-04-24T03:46:03;5.93;;;4.60;;
9924;SDS011;5001;51.674;7.868;2023-04-24T03:48:33;9.87;;;7.10;;
9924;SDS011;5001;51.674;7.868;2023-04-24T03:51:01;6.30;;;4.60;;
9924;SDS011;5001;51.674;7.868;2023-04-24T03:53:29;4.87;;;4.37;;
9924;SDS011;5001;51.674;7.868;2023-04-24T03:55:56;5.97;;;4.80;;
9924;SDS011;5001;51.674;7.868;2023-04-24T03:58:23;14.43;;;11.17;;
9924;SDS011;5001;51.674;7.868;2023-04-24T04:00:54;12.93;;;9.67;;
9924;SDS011;5001;51.674;7.868;2023-04-24T04:03:56;10.93;;;8.30;;
9924;SDS011;5001;51.674;7.868;2023-04-24T04:06:26;13.83;;;8.57;;
9924;SDS011;5001;51.674;7.868;2023-04-24T04:08:54;15.23;;;10.87;;
9924;SDS011;5001;51.674;7.868;2023-04-24T04:11:21;10.23;;;8.23;;
9924;SDS011;5001;51.674;7.868;2023-04-24T04:13:49;10.17;;;7.40;;
9924;SDS011;5001;51.674;7.868;2023-04-24T04:16:19;9.67;;;8.07;;
9924;SDS011;5001;51.674;7.868;2023-04-24T04:18:49;10.33;;;8.00;;
9924;SDS011;5001;51.674;7.868;2023-04-24T04:21:16;9.43;;;7.80;;
9924;SDS011;5001;51.674;7.868;2023-04-24T04:23:43;9.00;;;7.87;;
9924;SDS011;5001;51.674;7.868;2023-04-24T04:26:15;11.97;;;8.50;;
9924;SDS011;5001;51.674;7.868;2023-04-24T04:29:02;10.23;;;8.40;;
9924;SDS011;5001;51.674;7.868;2023-04-24T04:31:31;15.13;;;9.37;;
9924;SDS011;5001;51.674;7.868;2023-04-24T04:34:02;10.20;;;8.87;;
9924;SDS011;5001;51.674;7.868;2023-04-24T04:36:31;9.50;;;8.53;;
9924;SDS011;5001;51.674;7.868;2023-04-24T04:39:15;13.43;;;8.00;;
9924;SDS011;5001;51.674;7.868;2023-04-24T04:41:54;12.97;;;8.50;;
9924;SDS011;5001;51.674;7.868;2023-04-24T04:44:25;10.33;;;8.40;;
9924;SDS011;5001;51.674;7.868;2023-04-24T04:46:57;12.67;;;9.70;;
9924;SDS011;5001;51.674;7.868;2023-04-24T04:49:28;12.30;;;9.33;;
9924;SDS011;5001;51.674;7.868;2023-04-24T04:51:55;12.57;;;9.27;;
9924;SDS011;5001;51.674;7.868;2023-04-24T04:54:24;15.10;;;10.50;;
9924;SDS011;5001;51.674;7.868;2023-04-24T04:56:52;16.07;;;11.63;;
9924;SDS011;5001;51.674;7.868;2023-04-24T04:59:20;16.07;;;10.80;;
9924;SDS011;5001;51.674;7.868;2023-04-24T05:01:50;16.70;;;11.57;;
9924;SDS011;5001;51.674;7.868;2023-04-24T05:04:17;13.77;;;11.67;;
9924;SDS011;5001;51.674;7.868;2023-04-24T05:06:45;15.93;;;11.80;;
9924;SDS011;5001;51.674;7.868;2023-04-24T05:09:14;15.57;;;11.00;;
9924;SDS011;5001;51.674;7.868;2023-04-24T05:11:49;14.27;;;10.93;;
9924;SDS011;5001;51.674;7.868;2023-04-24T05:14:16;16.73;;;10.43;;
9924;SDS011;5001;51.674;7.868;2023-04-24T05:16:45;13.37;;;9.80;;
9924;SDS011;5001;51.674;7.868;2023-04-24T05:19:13;15.93;;;10.43;;
9924;SDS011;5001;51.674;7.868;2023-04-24T05:21:41;12.30;;;10.37;;
9924;SDS011;5001;51.674;7.868;2023-04-24T05:24:09;13.37;;;10.60;;
9924;SDS011;5001;51.674;7.868;2023-04-24T05:27:02;13.43;;;10.33;;
9924;SDS011;5001;51.674;7.868;2023-04-24T05:29:38;13.90;;;10.97;;
9924;SDS011;5001;51.674;7.868;2023-04-24T05:32:06;13.87;;;10.50;;
9924;SDS011;5001;51.674;7.868;2023-04-24T05:34:33;13.13;;;10.83;;
9924;SDS011;5001;51.674;7.868;2023-04-24T05:37:01;15.77;;;9.53;;
9924;SDS011;5001;51.674;7.868;2023-04-24T05:39:29;14.87;;;10.63;;
9924;SDS011;5001;51.674;7.868;2023-04-24T05:41:56;13.27;;;11.20;;
9924;SDS011;5001;51.674;7.868;2023-04-24T05:44:24;17.03;;;10.80;;
9924;SDS011;5001;51.674;7.868;2023-04-24T05:46:52;16.30;;;10.90;;
9924;SDS011;5001;51.674;7.868;2023-04-24T05:49:19;15.03;;;11.97;;
9924;SDS011;5001;51.674;7.868;2023-04-24T05:51:46;14.07;;;11.20;;
9924;SDS011;5001;51.674;7.868;2023-04-24T05:54:15;13.03;;;11.20;;
9924;SDS011;5001;51.674;7.868;2023-04-24T05:56:41;16.97;;;11.37;;
9924;SDS011;5001;51.674;7.868;2023-04-24T05:59:12;17.50;;;11.63;;
9924;SDS011;5001;51.674;7.868;2023-04-24T06:01:39;16.53;;;11.03;;
9924;SDS011;5001;51.674;7.868;2023-04-24T06:04:14;15.03;;;10.77;;
9924;SDS011;5001;51.674;7.868;2023-04-24T06:06:42;17.23;;;11.80;;
9924;SDS011;5001;51.674;7.868;2023-04-24T06:09:09;12.30;;;10.83;;
9924;SDS011;5001;51.674;7.868;2023-04-24T06:11:36;14.03;;;11.23;;
9924;SDS011;5001;51.674;7.868;2023-04-24T06:14:04;15.50;;;9.57;;
9924;SDS011;5001;51.674;7.868;2023-04-24T06:16:37;9.83;;;8.70;;
9924;SDS011;5001;51.674;7.868;2023-04-24T06:19:15;13.87;;;9.33;;
9924;SDS011;5001;51.674;7.868;2023-04-24T06:21:42;9.80;;;8.80;;
9924;SDS011;5001;51.674;7.868;2023-04-24T06:24:09;10.10;;;7.70;;
9924;SDS011;5001;51.674;7.868;2023-04-24T06:26:37;10.63;;;7.70;;
9924;SDS011;5001;51.674;7.868;2023-04-24T06:29:06;10.50;;;7.67;;
9924;SDS011;5001;51.674;7.868;2023-04-24T06:31:34;9.63;;;7.57;;
9924;SDS011;5001;51.674;7.868;2023-04-24T06:34:03;8.90;;;6.73;;
9924;SDS011;5001;51.674;7.868;2023-04-24T06:36:30;8.00;;;6.33;;
9924;SDS011;5001;51.674;7.868;2023-04-24T06:38:58;8.93;;;6.30;;
9924;SDS011;5001;51.674;7.868;2023-04-24T06:41:25;7.53;;;5.70;;
9924;SDS011;5001;51.674;7.868;2023-04-24T06:43:52;9.07;;;6.07;;
9924;SDS011;5001;51.674;7.868;2023-04-24T06:46:19;12.63;;;6.80;;
9924;SDS011;5001;51.674;7.868;2023-04-24T06:48:49;7.57;;;6.00;;
9924;SDS011;5001;51.674;7.868;2023-04-24T06:51:16;12.80;;;7.07;;
9924;SDS011;5001;51.674;7.868;2023-04-24T06:53:44;9.17;;;6.97;;
9924;SDS011;5001;51.674;7.868;2023-04-24T06:56:14;9.90;;;7.03;;
9924;SDS011;5001;51.674;7.868;2023-04-24T06:58:41;7.90;;;6.40;;
9924;SDS011;5001;51.674;7.868;2023-04-24T07:01:09;9.63;;;6.87;;
9924;SDS011;5001;51.674;7.868;2023-04-24T07:03:36;8.07;;;6.07;;
9924;SDS011;5001;51.674;7.868;2023-04-24T07:06:04;9.97;;;6.33;;
9924;SDS011;5001;51.674;7.868;2023-04-24T07:08:31;8.10;;;6.17;;
9924;SDS011;5001;51.674;7.868;2023-04-24T07:10:59;6.57;;;5.80;;
9924;SDS011;5001;51.674;7.868;2023-04-24T07:13:26;7.83;;;5.33;;
9924;SDS011;5001;51.674;7.868;2023-04-24T07:15:53;9.07;;;5.70;;
9924;SDS011;5001;51.674;7.868;2023-04-24T07:18:22;5.97;;;5.03;;
9924;SDS011;5001;51.674;7.868;2023-04-24T07:20:49;8.10;;;5.17;;
9924;SDS011;5001;51.674;7.868;2023-04-24T07:23:17;4.53;;;4.13;;
9924;SDS011;5001;51.674;7.868;2023-04-24T07:25:45;6.33;;;4.40;;
9924;SDS011;5001;51.674;7.868;2023-04-24T07:28:13;6.53;;;4.03;;
9924;SDS011;5001;51.674;7.868;2023-04-24T07:30:40;4.93;;;4.10;;
9924;SDS011;5001;51.674;7.868;2023-04-24T07:33:07;6.03;;;4.10;;
9924;SDS011;5001;51.674;7.868;2023-04-24T07:35:34;4.90;;;4.40;;
9924;SDS011;5001;51.674;7.868;2023-04-24T07:38:01;3.50;;;3.20;;
9924;SDS011;5001;51.674;7.868;2023-04-24T07:40:28;5.10;;;3.13;;
9924;SDS011;5001;51.674;7.868;2023-04-24T07:42:55;3.33;;;3.03;;
9924;SDS011;5001;51.674;7.868;2023-04-24T07:45:23;3.93;;;3.50;;
9924;SDS011;5001;51.674;7.868;2023-04-24T07:47:52;3.23;;;2.93;;
9924;SDS011;5001;51.674;7.868;2023-04-24T07:50:19;3.83;;;3.20;;
9924;SDS011;5001;51.674;7.868;2023-04-24T07:52:46;3.43;;;3.13;;
9924;SDS011;5001;51.674;7.868;2023-04-24T07:55:14;3.43;;;3.13;;
9924;SDS011;5001;51.674;7.868;2023-04-24T07:57:41;5.27;;;3.13;;
9924;SDS011;5001;51.674;7.868;2023-04-24T08:00:08;3.60;;;3.07;;
9924;SDS011;5001;51.674;7.868;2023-04-24T08:02:38;2.83;;;2.63;;
9924;SDS011;5001;51.674;7.868;2023-04-24T08:05:06;3.73;;;3.00;;
9924;SDS011;5001;51.674;7.868;2023-04-24T08:07:34;3.30;;;3.00;;
9924;SDS011;5001;51.674;7.868;2023-04-24T08:10:02;3.93;;;3.13;;
9924;SDS011;5001;51.674;7.868;2023-04-24T08:12:29;3.53;;;3.20;;
9924;SDS011;5001;51.674;7.868;2023-04-24T08:14:56;5.53;;;3.10;;
9924;SDS011;5001;51.674;7.868;2023-04-24T08:17:23;6.00;;;3.60;;
9924;SDS011;5001;51.674;7.868;2023-04-24T08:19:50;4.03;;;2.73;;
9924;SDS011;5001;51.674;7.868;2023-04-24T08:22:19;3.87;;;3.00;;
9924;SDS011;5001;51.674;7.868;2023-04-24T08:24:46;3.87;;;2.83;;
9924;SDS011;5001;51.674;7.868;2023-04-24T08:27:13;3.23;;;2.93;;
9924;SDS011;5001;51.674;7.868;2023-04-24T08:29:40;4.27;;;3.17;;
9924;SDS011;5001;51.674;7.868;2023-04-24T08:32:08;3.33;;;3.00;;
9924;SDS011;5001;51.674;7.868;2023-04-24T08:34:35;3.00;;;2.67;;
9924;SDS011;5001;51.674;7.868;2023-04-24T08:37:02;2.70;;;2.50;;
9924;SDS011;5001;51.674;7.868;2023-04-24T08:39:29;2.30;;;2.10;;
9924;SDS011;5001;51.674;7.868;2023-04-24T08:41:56;3.33;;;2.80;;
9924;SDS011;5001;51.674;7.868;2023-04-24T08:44:32;2.37;;;2.07;;
9924;SDS011;5001;51.674;7.868;2023-04-24T08:46:59;1.90;;;1.70;;
9924;SDS011;5001;51.674;7.868;2023-04-24T08:49:28;4.33;;;3.70;;
9924;SDS011;5001;51.674;7.868;2023-04-24T08:51:55;1.97;;;1.60;;
9924;SDS011;5001;51.674;7.868;2023-04-24T08:54:23;2.10;;;1.90;;
9924;SDS011;5001;51.674;7.868;2023-04-24T08:56:52;2.83;;;2.10;;
9924;SDS011;5001;51.674;7.868;2023-04-24T08:59:22;2.87;;;2.43;;
9924;SDS011;5001;51.674;7.868;2023-04-24T09:01:49;2.43;;;2.20;;
9924;SDS011;5001;51.674;7.868;2023-04-24T09:04:18;3.97;;;2.67;;
9924;SDS011;5001;51.674;7.868;2023-04-24T09:06:48;2.70;;;2.30;;
9924;SDS011;5001;51.674;7.868;2023-04-24T09:09:19;4.43;;;2.90;;
9924;SDS011;5001;51.674;7.868;2023-04-24T09:11:46;3.77;;;2.50;;
9924;SDS011;5001;51.674;7.868;2023-04-24T09:14:15;4.77;;;3.93;;
9924;SDS011;5001;51.674;7.868;2023-04-24T09:16:43;3.10;;;2.80;;
9924;SDS011;5001;51.674;7.868;2023-04-24T09:19:10;6.87;;;4.87;;
9924;SDS011;5001;51.674;7.868;2023-04-24T09:21:37;6.07;;;4.20;;
9924;SDS011;5001;51.674;7.868;2023-04-24T09:24:05;6.23;;;4.47;;
9924;SDS011;5001;51.674;7.868;2023-04-24T09:26:35;4.93;;;3.00;;
9924;SDS011;5001;51.674;7.868;2023-04-24T09:29:03;4.73;;;3.83;;
9924;SDS011;5001;51.674;7.868;2023-04-24T09:31:31;3.73;;;2.17;;
9924;SDS011;5001;51.674;7.868;2023-04-24T09:34:00;3.87;;;3.20;;
9924;SDS011;5001;51.674;7.868;2023-04-24T09:36:37;5.53;;;4.30;;
9924;SDS011;5001;51.674;7.868;2023-04-24T09:39:07;4.10;;;2.80;;
9924;SDS011;5001;51.674;7.868;2023-04-24T09:41:45;12.40;;;6.53;;
9924;SDS011;5001;51.674;7.868;2023-04-24T09:44:18;2.13;;;1.63;;
9924;SDS011;5001;51.674;7.868;2023-04-24T09:46:54;3.73;;;2.43;;
9924;SDS011;5001;51.674;7.868;2023-04-24T09:49:24;1.80;;;1.70;;
9924;SDS011;5001;51.674;7.868;2023-04-24T09:52:02;5.67;;;3.43;;
9924;SDS011;5001;51.674;7.868;2023-04-24T09:54:31;2.43;;;2.03;;
9924;SDS011;5001;51.674;7.868;2023-04-24T09:56:58;1.77;;;1.67;;
9924;SDS011;5001;51.674;7.868;2023-04-24T09:59:27;2.83;;;1.60;;
9924;SDS011;5001;51.674;7.868;2023-04-24T10:01:54;3.53;;;1.93;;
9924;SDS011;5001;51.674;7.868;2023-04-24T10:04:22;1.50;;;1.20;;
9924;SDS011;5001;51.674;7.868;2023-04-24T10:06:51;2.27;;;1.87;;
9924;SDS011;5001;51.674;7.868;2023-04-24T10:09:20;4.33;;;2.03;;
9924;SDS011;5001;51.674;7.868;2023-04-24T10:11:50;1.50;;;1.40;;
9924;SDS011;5001;51.674;7.868;2023-04-24T10:14:19;2.07;;;1.60;;
9924;SDS011;5001;51.674;7.868;2023-04-24T10:16:47;3.50;;;3.10;;
9924;SDS011;5001;51.674;7.868;2023-04-24T10:19:15;3.53;;;2.40;;
9924;SDS011;5001;51.674;7.868;2023-04-24T10:21:44;2.40;;;2.07;;
9924;SDS011;5001;51.674;7.868;2023-04-24T10:24:16;3.17;;;2.87;;
9924;SDS011;5001;51.674;7.868;2023-04-24T10:26:44;3.77;;;2.87;;
9924;SDS011;5001;51.674;7.868;2023-04-24T10:29:12;2.63;;;2.40;;
9924;SDS011;5001;51.674;7.868;2023-04-24T10:31:41;3.43;;;2.83;;
9924;SDS011;5001;51.674;7.868;2023-04-24T10:34:12;5.40;;;3.00;;
9924;SDS011;5001;51.674;7.868;2023-04-24T10:36:53;2.73;;;2.43;;
9924;SDS011;5001;51.674;7.868;2023-04-24T10:39:23;3.23;;;2.93;;
9924;SDS011;5001;51.674;7.868;2023-04-24T10:41:53;2.40;;;2.20;;
9924;SDS011;5001;51.674;7.868;2023-04-24T10:44:23;2.40;;;2.20;;
9924;SDS011;5001;51.674;7.868;2023-04-24T10:46:54;3.87;;;2.20;;
9924;SDS011;5001;51.674;7.868;2023-04-24T10:49:29;2.93;;;2.40;;
9924;SDS011;5001;51.674;7.868;2023-04-24T10:52:01;3.53;;;2.30;;
9924;SDS011;5001;51.674;7.868;2023-04-24T10:54:36;2.30;;;2.10;;
9924;SDS011;5001;51.674;7.868;2023-04-24T10:59:49;3.80;;;2.50;;
9924;SDS011;5001;51.674;7.868;2023-04-24T11:02:17;3.87;;;2.37;;
9924;SDS011;5001;51.674;7.868;2023-04-24T11:05:04;4.80;;;2.10;;
9924;SDS011;5001;51.674;7.868;2023-04-24T11:10:43;2.03;;;1.87;;
9924;SDS011;5001;51.674;7.868;2023-04-24T11:13:15;3.10;;;2.10;;
9924;SDS011;5001;51.674;7.868;2023-04-24T11:16:33;4.77;;;2.40;;
9924;SDS011;5001;51.674;7.868;2023-04-24T11:18:42;2.50;;;2.03;;
9924;SDS011;5001;51.674;7.868;2023-04-24T11:21:12;2.50;;;2.10;;
9924;SDS011;5001;51.674;7.868;2023-04-24T11:23:39;2.57;;;2.37;;
9924;SDS011;5001;51.674;7.868;2023-04-24T11:26:11;2.77;;;2.27;;
9924;SDS011;5001;51.674;7.868;2023-04-24T11:28:46;3.23;;;2.07;;
9924;SDS011;5001;51.674;7.868;2023-04-24T11:34:14;2.93;;;2.23;;
9924;SDS011;5001;51.674;7.868;2023-04-24T11:36:44;3.70;;;2.47;;
9924;SDS011;5001;51.674;7.868;2023-04-24T11:39:13;3.13;;;2.33;;
9924;SDS011;5001;51.674;7.868;2023-04-24T11:41:41;4.13;;;3.00;;
9924;SDS011;5001;51.674;7.868;2023-04-24T11:44:08;2.90;;;2.60;;
9924;SDS011;5001;51.674;7.868;2023-04-24T11:46:37;2.87;;;2.40;;
9924;SDS011;5001;51.674;7.868;2023-04-24T11:49:06;4.10;;;3.10;;
9924;SDS011;5001;51.674;7.868;2023-04-24T11:51:33;6.00;;;2.87;;
9924;SDS011;5001;51.674;7.868;2023-04-24T11:54:16;3.03;;;2.60;;
9924;SDS011;5001;51.674;7.868;2023-04-24T11:56:44;4.60;;;2.57;;
9924;SDS011;5001;51.674;7.868;2023-04-24T11:59:13;6.60;;;3.10;;
9924;SDS011;5001;51.674;7.868;2023-04-24T12:01:47;5.80;;;2.87;;
9924;SDS011;5001;51.674;7.868;2023-04-24T12:04:16;4.60;;;2.87;;
9924;SDS011;5001;51.674;7.868;2023-04-24T12:07:03;27.23;;;11.30;;
9924;SDS011;5001;51.674;7.868;2023-04-24T12:09:41;39.00;;;17.10;;
9924;SDS011;5001;51.674;7.868;2023-04-24T12:12:13;17.30;;;9.07;;
9924;SDS011;5001;51.674;7.868;2023-04-24T12:14:42;64.37;;;25.27;;
9924;SDS011;5001;51.674;7.868;2023-04-24T12:17:23;61.87;;;25.13;;
9924;SDS011;5001;51.674;7.868;2023-04-24T12:20:05;43.40;;;19.67;;
9924;SDS011;5001;51.674;7.868;2023-04-24T12:25:24;15.23;;;7.27;;
9924;SDS011;5001;51.674;7.868;2023-04-24T12:28:08;46.63;;;21.13;;
9924;SDS011;5001;51.674;7.868;2023-04-24T12:33:11;26.23;;;13.00;;
9924;SDS011;5001;51.674;7.868;2023-04-24T12:35:39;18.17;;;8.73;;
9924;SDS011;5001;51.674;7.868;2023-04-24T12:38:11;16.67;;;7.27;;
9924;SDS011;5001;51.674;7.868;2023-04-24T12:40:40;35.13;;;14.70;;
9924;SDS011;5001;51.674;7.868;2023-04-24T12:43:14;39.47;;;17.77;;
9924;SDS011;5001;51.674;7.868;2023-04-24T12:45:43;18.93;;;8.30;;
9924;SDS011;5001;51.674;7.868;2023-04-24T12:48:11;41.93;;;17.47;;
9924;SDS011;5001;51.674;7.868;2023-04-24T12:50:40;19.30;;;10.03;;
9924;SDS011;5001;51.674;7.868;2023-04-24T12:53:12;23.90;;;9.37;;
9924;SDS011;5001;51.674;7.868;2023-04-24T12:55:39;37.97;;;18.07;;
9924;SDS011;5001;51.674;7.868;2023-04-24T12:58:07;39.27;;;16.60;;
9924;SDS011;5001;51.674;7.868;2023-04-24T13:00:34;14.63;;;5.17;;
9924;SDS011;5001;51.674;7.868;2023-04-24T13:03:01;27.27;;;11.60;;
9924;SDS011;5001;51.674;7.868;2023-04-24T13:05:29;18.07;;;7.97;;
9924;SDS011;5001;51.674;7.868;2023-04-24T13:07:57;20.13;;;10.60;;
9924;SDS011;5001;51.674;7.868;2023-04-24T13:10:24;33.53;;;20.13;;
9924;SDS011;5001;51.674;7.868;2023-04-24T13:12:52;33.97;;;20.07;;
9924;SDS011;5001;51.674;7.868;2023-04-24T13:15:19;14.13;;;5.87;;
9924;SDS011;5001;51.674;7.868;2023-04-24T13:17:46;15.63;;;7.83;;
9924;SDS011;5001;51.674;7.868;2023-04-24T13:20:13;9.87;;;6.67;;
9924;SDS011;5001;51.674;7.868;2023-04-24T13:22:40;23.47;;;14.00;;
9924;SDS011;5001;51.674;7.868;2023-04-24T13:25:07;27.03;;;14.70;;
9924;SDS011;5001;51.674;7.868;2023-04-24T13:27:35;13.47;;;7.87;;
9924;SDS011;5001;51.674;7.868;2023-04-24T13:30:04;23.77;;;14.93;;
9924;SDS011;5001;51.674;7.868;2023-04-24T13:32:32;19.97;;;12.10;;
9924;SDS011;5001;51.674;7.868;2023-04-24T13:35:01;19.20;;;11.10;;
9924;SDS011;5001;51.674;7.868;2023-04-24T13:37:29;16.57;;;8.73;;
9924;SDS011;5001;51.674;7.868;2023-04-24T13:39:56;21.70;;;13.17;;
9924;SDS011;5001;51.674;7.868;2023-04-24T13:42:23;12.30;;;9.47;;
9924;SDS011;5001;51.674;7.868;2023-04-24T13:44:50;10.70;;;6.73;;
9924;SDS011;5001;51.674;7.868;2023-04-24T13:47:18;16.00;;;11.27;;
9924;SDS011;5001;51.674;7.868;2023-04-24T13:49:45;14.33;;;8.63;;
9924;SDS011;5001;51.674;7.868;2023-04-24T13:52:12;10.70;;;6.50;;
9924;SDS011;5001;51.674;7.868;2023-04-24T13:54:40;17.00;;;10.10;;
9924;SDS011;5001;51.674;7.868;2023-04-24T13:57:07;13.53;;;7.63;;
9924;SDS011;5001;51.674;7.868;2023-04-24T13:59:34;14.87;;;9.00;;
9924;SDS011;5001;51.674;7.868;2023-04-24T14:02:01;7.20;;;4.40;;
9924;SDS011;5001;51.674;7.868;2023-04-24T14:04:27;8.10;;;5.30;;
9924;SDS011;5001;51.674;7.868;2023-04-24T14:06:55;11.07;;;7.00;;
9924;SDS011;5001;51.674;7.868;2023-04-24T14:09:22;8.50;;;4.07;;
9924;SDS011;5001;51.674;7.868;2023-04-24T14:11:49;13.13;;;7.77;;
9924;SDS011;5001;51.674;7.868;2023-04-24T14:14:18;11.10;;;7.43;;
9924;SDS011;5001;51.674;7.868;2023-04-24T14:16:45;9.40;;;5.33;;
9924;SDS011;5001;51.674;7.868;2023-04-24T14:19:12;7.10;;;5.50;;
9924;SDS011;5001;51.674;7.868;2023-04-24T14:21:39;8.97;;;5.40;;
9924;SDS011;5001;51.674;7.868;2023-04-24T14:24:06;6.50;;;3.37;;
9924;SDS011;5001;51.674;7.868;2023-04-24T14:26:34;6.90;;;3.73;;
9924;SDS011;5001;51.674;7.868;2023-04-24T14:29:01;8.70;;;4.37;;
9924;SDS011;5001;51.674;7.868;2023-04-24T14:31:40;7.07;;;4.97;;
9924;SDS011;5001;51.674;7.868;2023-04-24T14:34:08;7.77;;;4.77;;
9924;SDS011;5001;51.674;7.868;2023-04-24T14:36:35;9.83;;;7.20;;
9924;SDS011;5001;51.674;7.868;2023-04-24T14:39:02;10.53;;;6.03;;
9924;SDS011;5001;51.674;7.868;2023-04-24T14:41:33;13.17;;;8.33;;
9924;SDS011;5001;51.674;7.868;2023-04-24T14:44:05;8.63;;;6.13;;
9924;SDS011;5001;51.674;7.868;2023-04-24T14:46:32;13.60;;;9.10;;
9924;SDS011;5001;51.674;7.868;2023-04-24T14:48:59;10.03;;;6.57;;
9924;SDS011;5001;51.674;7.868;2023-04-24T14:51:27;6.37;;;3.87;;
9924;SDS011;5001;51.674;7.868;2023-04-24T14:53:54;11.23;;;7.53;;
9924;SDS011;5001;51.674;7.868;2023-04-24T14:56:22;14.83;;;10.50;;
9924;SDS011;5001;51.674;7.868;2023-04-24T14:58:50;12.63;;;9.07;;
9924;SDS011;5001;51.674;7.868;2023-04-24T15:01:17;13.00;;;7.10;;
9924;SDS011;5001;51.674;7.868;2023-04-24T15:03:44;7.40;;;4.50;;
9924;SDS011;5001;51.674;7.868;2023-04-24T15:06:12;10.67;;;8.23;;
9924;SDS011;5001;51.674;7.868;2023-04-24T15:08:39;10.63;;;4.90;;
9924;SDS011;5001;51.674;7.868;2023-04-24T15:11:06;16.83;;;9.93;;
9924;SDS011;5001;51.674;7.868;2023-04-24T15:13:33;10.77;;;8.37;;
9924;SDS011;5001;51.674;7.868;2023-04-24T15:16:01;10.63;;;6.80;;
9924;SDS011;5001;51.674;7.868;2023-04-24T15:18:28;8.50;;;5.47;;
9924;SDS011;5001;51.674;7.868;2023-04-24T15:20:55;12.50;;;7.37;;
9924;SDS011;5001;51.674;7.868;2023-04-24T15:23:23;7.03;;;5.00;;
9924;SDS011;5001;51.674;7.868;2023-04-24T15:25:50;7.37;;;6.40;;
9924;SDS011;5001;51.674;7.868;2023-04-24T15:28:17;9.23;;;5.57;;
9924;SDS011;5001;51.674;7.868;2023-04-24T15:30:44;7.13;;;5.30;;
9924;SDS011;5001;51.674;7.868;2023-04-24T15:33:11;3.60;;;3.23;;